Decoded Metar for LFOJ (ORLEANS in FRANCE) (IATA:ORE) | Meteo·Mobile Aviation Weather
aviador You're here:

LFOJ Decoded Metar

ORLEANS in FRANCE
Report Time2018-11-19 00:30:00
UTC Time2018-11-19 00:48:53
Flight Rules vfr VFR
Wind050° at 09 kt
W.Decomp.*RWY 07: 8.5 kt HW 2.9 kt LCW
W.Rank050° ranks 5
Current wind is above 050° avg. (6.9)
Visibility9999 m
Phenomena:N/A
Clouds:N/A
Expected CloudBase > 800 ft AGL from Temp-Dew spread
CeilingNone
Temp00°C (ISA -14)
Dew Point-2°C (87% RH)
AAT-5.5°C
QNH1016 hPa
Density Alt-1,352 ft
Elevation410 ft
Report Wrong Elevation
Raw Report
LFOJ 190030Z AUTO 05009KT CAVOK 00/M02 Q1016=

Extra information for LFOJ:More info

Metar Taf Metar & Taf Last 4 Metars F.Rules Stats Wind Profile Meteogram Temp Stats Airport Information Weather charts Add Link Nearby VenuesMetar ALERT Operation Metar Decoded Social comments